Map

Track Data

SID SEASON NUMBER BASIN SUBBASIN NAME ISO_TIME NATURE LAT LON WMO_WIND WMO_PRES WMO_AGENCY TRACK_TYPE DIST2LAND LANDFALL IFLAG USA_AGENCY USA_ATCF_ID USA_LAT USA_LON USA_RECORD USA_STATUS USA_WIND USA_PRES USA_SSHS USA_R34_NE USA_R34_SE USA_R34_SW USA_R34_NW USA_R50_NE USA_R50_SE USA_R50_SW USA_R50_NW USA_R64_NE USA_R64_SE USA_R64_SW USA_R64_NW USA_POCI USA_ROCI USA_RMW USA_EYE TOKYO_LAT TOKYO_LON TOKYO_GRADE TOKYO_WIND TOKYO_PRES TOKYO_R50_DIR TOKYO_R50_LONG TOKYO_R50_SHORT TOKYO_R30_DIR TOKYO_R30_LONG TOKYO_R30_SHORT TOKYO_LAND CMA_LAT CMA_LON CMA_CAT CMA_WIND CMA_PRES HKO_LAT HKO_LON HKO_CAT HKO_WIND HKO_PRES NEWDELHI_LAT NEWDELHI_LON NEWDELHI_GRADE NEWDELHI_WIND NEWDELHI_PRES NEWDELHI_CI NEWDELHI_DP NEWDELHI_POCI REUNION_LAT REUNION_LON REUNION_TYPE REUNION_WIND REUNION_PRES REUNION_TNUM REUNION_CI REUNION_RMW REUNION_R34_NE REUNION_R34_SE REUNION_R34_SW REUNION_R34_NW REUNION_R50_NE REUNION_R50_SE REUNION_R50_SW REUNION_R50_NW REUNION_R64_NE REUNION_R64_SE REUNION_R64_SW REUNION_R64_NW BOM_LAT BOM_LON BOM_TYPE BOM_WIND BOM_PRES BOM_TNUM BOM_CI BOM_RMW BOM_R34_NE BOM_R34_SE BOM_R34_SW BOM_R34_NW BOM_R50_NE BOM_R50_SE BOM_R50_SW BOM_R50_NW BOM_R64_NE BOM_R64_SE BOM_R64_SW BOM_R64_NW BOM_ROCI BOM_POCI BOM_EYE BOM_POS_METHOD BOM_PRES_METHOD NADI_LAT NADI_LON NADI_CAT NADI_WIND NADI_PRES WELLINGTON_LAT WELLINGTON_LON WELLINGTON_WIND WELLINGTON_PRES DS824_LAT DS824_LON DS824_STAGE DS824_WIND DS824_PRES TD9636_LAT TD9636_LON TD9636_STAGE TD9636_WIND TD9636_PRES TD9635_LAT TD9635_LON TD9635_WIND TD9635_PRES TD9635_ROCI NEUMANN_LAT NEUMANN_LON NEUMANN_CLASS NEUMANN_WIND NEUMANN_PRES MLC_LAT MLC_LON MLC_CLASS MLC_WIND MLC_PRES USA_GUST BOM_GUST BOM_GUST_PER REUNION_GUST REUNION_GUST_PER USA_SEAHGT USA_SEARAD_NE USA_SEARAD_SE USA_SEARAD_SW USA_SEARAD_NW STORM_SPEED STORM_DIR
1980313N14277 1980 95 NA CS JEANNE 1980-11-07 18:00:00 NR 13.6000 -82.6000 20 1008 hurdat_atl main 97 48 O_____________ hurdat_atl AL161980 13.6000 -82.6000 DB 20 1008 -3 11 340
1980313N14277 1980 95 NA CS JEANNE 1980-11-07 21:00:00 NR 14.1301 -82.8023 main 48 31 P_____________ AL161980 14.1301 -82.8023 DB 20 1007 -3 12 341
1980313N14277 1980 95 NA CS JEANNE 1980-11-08 00:00:00 NR 14.7000 -83.0000 20 1006 hurdat_atl main 31 0 O_____________ hurdat_atl AL161980 14.7000 -83.0000 DB 20 1006 -3 13 343
1980313N14277 1980 95 NA CS JEANNE 1980-11-08 03:00:00 NR 15.3350 -83.1927 main 21 21 P_____________ AL161980 15.3350 -83.1927 DB 20 1006 -3 14 343
1980313N14277 1980 95 NA CS JEANNE 1980-11-08 06:00:00 NR 16.0000 -83.4000 20 1006 hurdat_atl main 74 74 O_____________ hurdat_atl AL161980 16.0000 -83.4000 DB 20 1006 -3 14 342
1980313N14277 1980 95 NA CS JEANNE 1980-11-08 09:00:00 NR 16.6500 -83.6500 main 119 119 P_____________ AL161980 16.6500 -83.6500 DB 22 1006 -3 14 340
1980313N14277 1980 95 NA CS JEANNE 1980-11-08 12:00:00 NR 17.3000 -83.9000 25 1006 hurdat_atl main 173 173 O_____________ hurdat_atl AL161980 17.3000 -83.9000 DB 25 1006 -3 14 342
1980313N14277 1980 95 NA CS JEANNE 1980-11-08 15:00:00 NR 17.9950 -84.1150 main 243 243 P_____________ AL161980 17.9950 -84.1150 DB 27 1005 -3 14 344
1980313N14277 1980 95 NA CS JEANNE 1980-11-08 18:00:00 TS 18.6000 -84.3000 30 1005 hurdat_atl main 305 305 O_____________ hurdat_atl AL161980 18.6000 -84.3000 TD 30 1005 -1 11 342
1980313N14277 1980 95 NA CS JEANNE 1980-11-08 21:00:00 TS 18.9950 -84.4652 main 309 279 P_____________ AL161980 18.9950 -84.4652 TD 30 1005 -1 8 338
1980313N14277 1980 95 NA CS JEANNE 1980-11-09 00:00:00 TS 19.3000 -84.6000 30 1005 hurdat_atl main 279 246 O_____________ hurdat_atl AL161980 19.3000 -84.6000 TD 30 1005 -1 7 341
1980313N14277 1980 95 NA CS JEANNE 1980-11-09 03:00:00 TS 19.6425 -84.7002 main 246 201 P_____________ AL161980 19.6425 -84.7002 TD 30 1004 -1 7 345
1980313N14277 1980 95 NA CS JEANNE 1980-11-09 06:00:00 TS 20.0000 -84.8000 30 1004 hurdat_atl main 201 156 O_____________ hurdat_atl AL161980 20.0000 -84.8000 TD 30 1004 -1 8 343
1980313N14277 1980 95 NA CS JEANNE 1980-11-09 09:00:00 TS 20.4150 -84.9574 main 157 116 P_____________ AL161980 20.4150 -84.9574 TD 35 1002 0 9 341
1980313N14277 1980 95 NA CS JEANNE 1980-11-09 12:00:00 TS 20.8000 -85.1000 40 1000 hurdat_atl main 116 88 O_____________ hurdat_atl AL161980 20.8000 -85.1000 TS 40 1000 0 7 344
1980313N14277 1980 95 NA CS JEANNE 1980-11-09 15:00:00 TS 21.0875 -85.1651 main 88 69 P_____________ AL161980 21.0875 -85.1651 TS 42 999 0 5 349
1980313N14277 1980 95 NA CS JEANNE 1980-11-09 18:00:00 TS 21.3000 -85.2000 45 999 hurdat_atl main 69 59 O_____________ hurdat_atl AL161980 21.3000 -85.2000 TS 45 999 0 4 349
1980313N14277 1980 95 NA CS JEANNE 1980-11-09 21:00:00 TS 21.4575 -85.2500 main 54 45 P_____________ AL161980 21.4575 -85.2500 TS 47 999 0 3 343
1980313N14277 1980 95 NA CS JEANNE 1980-11-10 00:00:00 TS 21.6000 -85.3000 50 999 hurdat_atl main 45 32 O_____________ hurdat_atl AL161980 21.6000 -85.3000 TS 50 999 0 3 343
1980313N14277 1980 95 NA CS JEANNE 1980-11-10 03:00:00 TS 21.7850 -85.3500 main 42 41 P_____________ AL161980 21.7850 -85.3500 TS 50 999 0 4 347
1980313N14277 1980 95 NA GM JEANNE 1980-11-10 06:00:00 TS 22.0000 -85.4000 50 999 hurdat_atl main 42 42 O_____________ hurdat_atl AL161980 22.0000 -85.4000 TS 50 999 0 5 349
1980313N14277 1980 95 NA GM JEANNE 1980-11-10 09:00:00 TS 22.2275 -85.4426 main 53 53 P_____________ AL161980 22.2275 -85.4426 TS 50 999 0 5 350
1980313N14277 1980 95 NA GM JEANNE 1980-11-10 12:00:00 TS 22.5000 -85.5000 50 999 hurdat_atl main 84 84 O_____________ hurdat_atl AL161980 22.5000 -85.5000 TS 50 999 0 6 348
1980313N14277 1980 95 NA GM JEANNE 1980-11-10 15:00:00 TS 22.8500 -85.5775 main 118 118 P_____________ AL161980 22.8500 -85.5775 TS 50 999 0 7 345
1980313N14277 1980 95 NA GM JEANNE 1980-11-10 18:00:00 TS 23.2000 -85.7000 50 999 hurdat_atl main 162 162 O_____________ hurdat_atl AL161980 23.2000 -85.7000 TS 50 999 0 7 336
1980313N14277 1980 95 NA GM JEANNE 1980-11-10 21:00:00 TS 23.4725 -85.8850 main 201 201 P_____________ AL161980 23.4725 -85.8850 TS 52 998 0 6 324
1980313N14277 1980 95 NA GM JEANNE 1980-11-11 00:00:00 TS 23.7000 -86.1000 55 998 hurdat_atl main 230 230 O_____________ hurdat_atl AL161980 23.7000 -86.1000 TS 55 998 0 6 321
1980313N14277 1980 95 NA GM JEANNE 1980-11-11 03:00:00 TS 23.9374 -86.2925 main 260 260 P_____________ AL161980 23.9374 -86.2925 TS 57 997 0 5 318
1980313N14277 1980 95 NA GM JEANNE 1980-11-11 06:00:00 TS 24.1000 -86.5000 60 997 hurdat_atl main 289 289 O_____________ hurdat_atl AL161980 24.1000 -86.5000 TS 60 997 0 5 294
1980313N14277 1980 95 NA GM JEANNE 1980-11-11 09:00:00 TS 24.1301 -86.7652 main 291 290 P_____________ AL161980 24.1301 -86.7652 TS 62 994 0 5 270
1980313N14277 1980 95 NA GM JEANNE 1980-11-11 12:00:00 TS 24.1000 -87.0000 65 992 hurdat_atl main 290 290 O_____________ hurdat_atl AL161980 24.1000 -87.0000 HU 65 992 1 3 265
1980313N14277 1980 95 NA GM JEANNE 1980-11-11 15:00:00 TS 24.0999 -87.1225 main 290 290 P_____________ AL161980 24.0999 -87.1225 HU 70 989 1 2 270
1980313N14277 1980 95 NA GM JEANNE 1980-11-11 18:00:00 TS 24.1000 -87.2000 75 986 hurdat_atl main 290 290 O_____________ hurdat_atl AL161980 24.1000 -87.2000 HU 75 986 1 1 278
1980313N14277 1980 95 NA GM JEANNE 1980-11-11 21:00:00 TS 24.1148 -87.2474 main 290 290 P_____________ AL161980 24.1148 -87.2474 HU 80 987 1 2 270
1980313N14277 1980 95 NA GM JEANNE 1980-11-12 00:00:00 TS 24.1000 -87.4000 85 988 hurdat_atl main 292 279 O_____________ hurdat_atl AL161980 24.1000 -87.4000 HU 85 988 2 5 258
1980313N14277 1980 95 NA GM JEANNE 1980-11-12 03:00:00 TS 24.0078 -87.8127 main 279 268 P_____________ AL161980 24.0078 -87.8127 HU 77 990 1 8 256
1980313N14277 1980 95 NA GM JEANNE 1980-11-12 06:00:00 TS 23.9000 -88.3000 70 992 hurdat_atl main 268 257 O_____________ hurdat_atl AL161980 23.9000 -88.3000 HU 70 992 1 8 257
1980313N14277 1980 95 NA GM JEANNE 1980-11-12 09:00:00 TS 23.8348 -88.6574 main 257 257 P_____________ AL161980 23.8348 -88.6574 HU 67 993 1 6 261
1980313N14277 1980 95 NA GM JEANNE 1980-11-12 12:00:00 TS 23.8000 -89.0000 65 994 hurdat_atl main 260 260 O_____________ hurdat_atl AL161980 23.8000 -89.0000 HU 65 994 1 7 265
1980313N14277 1980 95 NA GM JEANNE 1980-11-12 15:00:00 TS 23.7776 -89.4150 main 269 269 P_____________ AL161980 23.7776 -89.4150 HU 65 994 1 7 270
1980313N14277 1980 95 NA GM JEANNE 1980-11-12 18:00:00 TS 23.8000 -89.8000 65 995 hurdat_atl main 284 284 O_____________ hurdat_atl AL161980 23.8000 -89.8000 HU 65 995 1 6 276
1980313N14277 1980 95 NA GM JEANNE 1980-11-12 21:00:00 TS 23.8319 -90.0133 main 288 288 P_____________ AL161980 23.8319 -90.0133 HU 60 997 0 5 294
1980313N14277 1980 95 NA GM JEANNE 1980-11-13 00:00:00 TS 24.0000 -90.3000 55 999 hurdat_atl main 315 315 O_____________ hurdat_atl AL161980 24.0000 -90.3000 TS 55 999 0 10 306
1980313N14277 1980 95 NA GM JEANNE 1980-11-13 03:00:00 TS 24.4129 -90.8966 main 372 372 P_____________ AL161980 24.4129 -90.8966 TS 55 998 0 15 307
1980313N14277 1980 95 NA GM JEANNE 1980-11-13 06:00:00 TS 24.9000 -91.6000 55 997 hurdat_atl main 445 440 O_____________ hurdat_atl AL161980 24.9000 -91.6000 TS 55 997 0 15 307
1980313N14277 1980 95 NA GM JEANNE 1980-11-13 09:00:00 TS 25.3172 -92.2073 main 443 428 P_____________ AL161980 25.3172 -92.2073 TS 57 995 0 13 303
1980313N14277 1980 95 NA GM JEANNE 1980-11-13 12:00:00 TS 25.6000 -92.8000 60 993 hurdat_atl main 432 371 O_____________ hurdat_atl AL161980 25.6000 -92.8000 TS 60 993 0 11 287
1980313N14277 1980 95 NA GM JEANNE 1980-11-13 15:00:00 TS 25.6599 -93.4157 main 371 313 P_____________ AL161980 25.6599 -93.4157 TS 60 993 0 11 270
1980313N14277 1980 95 NA GM JEANNE 1980-11-13 18:00:00 TS 25.6000 -94.0000 60 994 hurdat_atl main 313 263 O_____________ hurdat_atl AL161980 25.6000 -94.0000 TS 60 994 0 11 264
1980313N14277 1980 95 NA GM JEANNE 1980-11-13 21:00:00 TS 25.5426 -94.5752 main 256 217 P_____________ AL161980 25.5426 -94.5752 TS 57 995 0 9 264
1980313N14277 1980 95 NA GM JEANNE 1980-11-14 00:00:00 TS 25.5000 -95.0000 55 996 hurdat_atl main 217 198 O_____________ hurdat_atl AL161980 25.5000 -95.0000 TS 55 996 0 5 268
1980313N14277 1980 95 NA GM JEANNE 1980-11-14 03:00:00 TS 25.5272 -95.1749 main 198 195 P_____________ AL161980 25.5272 -95.1749 TS 52 997 0 2 299
1980313N14277 1980 95 NA GM JEANNE 1980-11-14 06:00:00 TS 25.6000 -95.2000 50 998 hurdat_atl main 195 192 O_____________ hurdat_atl AL161980 25.6000 -95.2000 TS 50 998 0 2 339
1980313N14277 1980 95 NA GM JEANNE 1980-11-14 09:00:00 TS 25.6924 -95.2449 main 192 191 P_____________ AL161980 25.6924 -95.2449 TS 50 1000 0 2 8
1980313N14277 1980 95 NA GM JEANNE 1980-11-14 12:00:00 TS 25.8000 -95.2000 50 1002 hurdat_atl main 191 191 O_____________ hurdat_atl AL161980 25.8000 -95.2000 TS 50 1002 0 3 43
1980313N14277 1980 95 NA GM JEANNE 1980-11-14 15:00:00 TS 25.9001 -95.0300 main 210 210 P_____________ AL161980 25.9001 -95.0300 TS 45 1002 0 4 61
1980313N14277 1980 95 NA GM JEANNE 1980-11-14 18:00:00 TS 26.0000 -94.8000 40 1002 hurdat_atl main 229 229 O_____________ hurdat_atl AL161980 26.0000 -94.8000 TS 40 1002 0 4 60
1980313N14277 1980 95 NA GM JEANNE 1980-11-14 21:00:00 TS 26.1074 -94.6225 main 249 249 P_____________ AL161980 26.1074 -94.6225 TS 35 1003 0 4 61
1980313N14277 1980 95 NA GM JEANNE 1980-11-15 00:00:00 TS 26.2000 -94.4000 30 1004 hurdat_atl main 270 270 O_____________ hurdat_atl AL161980 26.2000 -94.4000 TD 30 1004 -1 5 72
1980313N14277 1980 95 NA GM JEANNE 1980-11-15 03:00:00 TS 26.2727 -94.0576 main 301 301 P_____________ AL161980 26.2727 -94.0576 TD 30 1004 -1 6 81
1980313N14277 1980 95 NA GM JEANNE 1980-11-15 06:00:00 TS 26.3000 -93.7000 30 1004 hurdat_atl main 335 335 O_____________ hurdat_atl AL161980 26.3000 -93.7000 TD 30 1004 -1 6 89
1980313N14277 1980 95 NA GM JEANNE 1980-11-15 09:00:00 TS 26.2799 -93.4200 main 349 349 P_____________ AL161980 26.2799 -93.4200 TD 27 1004 -1 5 103
1980313N14277 1980 95 NA GM JEANNE 1980-11-15 12:00:00 TS 26.2000 -93.2000 25 1005 hurdat_atl main 369 369 O_____________ hurdat_atl AL161980 26.2000 -93.2000 TD 25 1005 -1 4 118
1980313N14277 1980 95 NA GM JEANNE 1980-11-15 15:00:00 TS 26.0800 -93.0049 main 385 385 P_____________ AL161980 26.0800 -93.0049 TD 22 1005 -1 4 138
1980313N14277 1980 95 NA GM JEANNE 1980-11-15 18:00:00 TS 25.9000 -92.9000 20 1006 hurdat_atl main 406 406 O_____________ hurdat_atl AL161980 25.9000 -92.9000 TD 20 1006 -1 4 170
1980313N14277 1980 95 NA GM JEANNE 1980-11-15 21:00:00 TS 25.6425 -92.9202 main 422 414 P_____________ AL161980 25.6425 -92.9202 TD 20 1006 -1 5 190
1980313N14277 1980 95 NA GM JEANNE 1980-11-16 00:00:00 TS 25.4000 -93.0000 20 1007 hurdat_atl main 415 408 O_____________ hurdat_atl AL161980 25.4000 -93.0000 TD 20 1007 -1 4 198
1980313N14277 1980 95 NA GM JEANNE 1980-11-16 03:00:00 TS 25.2650 -93.0599 main 408 408 P_____________ AL161980 25.2650 -93.0599 TD 20 1007 -1 2 205
1980313N14277 1980 95 NA GM JEANNE 1980-11-16 06:00:00 TS 25.2000 -93.1000 20 1007 hurdat_atl main 410 O_____________ hurdat_atl AL161980 25.2000 -93.1000 TD 20 1007 -1 1 215

About IBTrACS Database

This database is a web-friendly format of International Best Track Archive for Climate Stewardship (IBTrACS), a global best track data archive curated by NOAA dating back to 1842.

Updated: 2021-10-21